Time;durP1;ratioP1;P1;durP2;ratioP2;P2;SDS_P1;SDS_P2;PMS_P1;PMS_P2;Temp;Humidity;BMP_temperature;BMP_pressure;BME280_temperature;BME280_humidity;BME280_pressure;Samples;Min_cycle;Max_cycle;Signal;HPM_P1;HPM_P2
2023/05/10 00:00:37;;;;;;;12.95;7.18;;;19.00;97.70;;;;;;5055655;28;20033;-71
2023/05/10 00:03:04;;;;;;;10.25;6.68;;;18.90;97.60;;;;;;5055339;28;20021;-76
2023/05/10 00:05:30;;;;;;;10.23;7.18;;;18.90;97.60;;;;;;5054026;28;20040;-72
2023/05/10 00:07:56;;;;;;;9.68;6.03;;;19.00;97.70;;;;;;5055147;28;20100;-70
2023/05/10 00:10:22;;;;;;;10.10;6.85;;;18.90;97.70;;;;;;5055287;28;20099;-76
2023/05/10 00:12:47;;;;;;;10.75;6.68;;;19.00;97.70;;;;;;5055471;28;20032;-75
2023/05/10 00:15:13;;;;;;;8.80;6.40;;;19.00;97.60;;;;;;5054974;28;20029;-73
2023/05/10 00:17:38;;;;;;;8.95;6.82;;;19.00;97.80;;;;;;5055159;28;20029;-74
2023/05/10 00:20:05;;;;;;;10.05;7.28;;;18.90;97.50;;;;;;5055326;28;20035;-74
2023/05/10 00:22:31;;;;;;;13.30;7.40;;;18.90;97.40;;;;;;5054718;28;20025;-73
2023/05/10 00:24:57;;;;;;;16.35;7.70;;;18.90;97.40;;;;;;5055074;28;20025;-74
2023/05/10 00:27:23;;;;;;;11.55;7.60;;;18.90;97.40;;;;;;5054482;28;20025;-72
2023/05/10 00:29:48;;;;;;;10.13;7.32;;;18.90;97.40;;;;;;5055125;28;20032;-74
2023/05/10 00:32:14;;;;;;;9.73;6.38;;;18.80;97.70;;;;;;5054966;28;20428;-74
2023/05/10 00:34:40;;;;;;;10.38;7.07;;;18.80;97.50;;;;;;5054752;28;20037;-75
2023/05/10 00:37:06;;;;;;;12.63;8.38;;;18.90;97.40;;;;;;5054394;28;20148;-72
2023/05/10 00:39:31;;;;;;;12.73;8.30;;;18.80;97.40;;;;;;5054843;28;20038;-71
2023/05/10 00:41:57;;;;;;;14.27;8.70;;;18.90;97.40;;;;;;5055153;28;20059;-75
2023/05/10 00:44:22;;;;;;;12.27;9.68;;;18.90;97.30;;;;;;5054820;28;20466;-72
2023/05/10 00:46:49;;;;;;;15.20;9.38;;;18.90;97.40;;;;;;5054622;28;20029;-72
2023/05/10 00:49:15;;;;;;;12.38;9.82;;;18.80;97.40;;;;;;5054663;28;20483;-73
2023/05/10 00:51:42;;;;;;;12.80;9.13;;;18.80;97.40;;;;;;5052917;28;20036;-75
2023/05/10 00:54:10;;;;;;;12.32;9.15;;;18.80;97.40;;;;;;5054731;28;20481;-75
2023/05/10 00:56:36;;;;;;;10.82;8.93;;;18.80;97.40;;;;;;5054344;28;20055;-72
2023/05/10 00:59:02;;;;;;;11.77;8.85;;;18.80;97.50;;;;;;5054518;28;20087;-72
2023/05/10 01:01:28;;;;;;;9.48;8.02;;;18.80;97.60;;;;;;5053288;28;20017;-75
2023/05/10 01:03:55;;;;;;;11.70;9.15;;;18.80;97.50;;;;;;5054458;28;20470;-75
2023/05/10 01:06:21;;;;;;;11.68;8.85;;;18.80;97.50;;;;;;5054005;28;20036;-72
2023/05/10 01:08:47;;;;;;;11.48;8.68;;;18.80;97.50;;;;;;5054308;28;20021;-73
2023/05/10 01:11:13;;;;;;;12.52;9.65;;;18.80;97.50;;;;;;5054340;28;20026;-74
2023/05/10 01:13:42;;;;;;;13.43;10.30;;;18.80;97.70;;;;;;5054206;28;20432;-74
2023/05/10 01:16:07;;;;;;;12.80;9.85;;;18.80;97.40;;;;;;5054235;28;20174;-74
2023/05/10 01:18:37;;;;;;;12.10;9.75;;;18.80;97.40;;;;;;5053862;28;20061;-73
2023/05/10 01:21:35;;;;;;;14.60;10.98;;;18.70;97.40;;;;;;5053812;28;20489;-71
2023/05/10 01:24:28;;;;;;;13.10;10.25;;;18.80;97.50;;;;;;5044726;28;20586;-70
2023/05/10 01:27:09;;;;;;;13.27;10.50;;;18.70;97.60;;;;;;5053867;28;20112;-71
2023/05/10 01:30:36;;;;;;;13.50;10.95;;;18.70;97.50;;;;;;5053846;28;20035;-74
2023/05/10 01:33:10;;;;;;;13.75;11.13;;;18.70;97.70;;;;;;4989514;28;20042;-74
2023/05/10 01:35:50;;;;;;;15.43;12.45;;;18.70;97.60;;;;;;5043940;28;20059;-72
2023/05/10 01:38:29;;;;;;;12.95;11.00;;;18.60;97.60;;;;;;5053704;28;20029;-75
2023/05/10 01:41:23;;;;;;;16.45;11.13;;;18.70;97.60;;;;;;5053056;28;20021;-72
2023/05/10 01:44:01;;;;;;;12.63;10.07;;;18.60;97.70;;;;;;5053298;28;20032;-71
2023/05/10 01:46:37;;;;;;;14.10;10.30;;;18.70;97.60;;;;;;5053810;28;20437;-73
2023/05/10 01:49:07;;;;;;;15.05;11.73;;;18.60;97.70;;;;;;5052973;28;20082;-75
2023/05/10 01:51:41;;;;;;;16.55;12.40;;;18.60;97.60;;;;;;5053462;28;20569;-74
2023/05/10 01:54:09;;;;;;;15.60;13.07;;;18.60;97.70;;;;;;5053271;28;20032;-76
2023/05/10 01:56:37;;;;;;;14.65;12.25;;;18.60;97.60;;;;;;5053410;28;20384;-71
2023/05/10 01:59:08;;;;;;;15.60;12.77;;;18.60;97.70;;;;;;5053254;28;20017;-70
2023/05/10 02:01:37;;;;;;;18.50;14.52;;;18.50;97.70;;;;;;5053306;28;20401;-73
2023/05/10 02:04:04;;;;;;;16.50;13.25;;;18.60;97.60;;;;;;5053047;28;20111;-75
2023/05/10 02:06:32;;;;;;;17.20;14.77;;;18.60;97.70;;;;;;5052876;28;20036;-75
2023/05/10 02:08:58;;;;;;;19.33;15.18;;;18.60;97.70;;;;;;5053219;28;20029;-75
2023/05/10 02:11:25;;;;;;;19.92;15.63;;;18.60;97.60;;;;;;5052991;28;20035;-74
2023/05/10 02:13:53;;;;;;;20.73;15.65;;;18.50;97.60;;;;;;5053086;28;20018;-74
2023/05/10 02:16:25;;;;;;;19.02;16.05;;;18.60;97.80;;;;;;5051434;28;20029;-74
2023/05/10 02:18:52;;;;;;;19.23;14.02;;;18.60;97.70;;;;;;5052598;28;20017;-73
2023/05/10 02:21:20;;;;;;;21.42;16.83;;;18.60;97.80;;;;;;5053155;28;20382;-70
2023/05/10 02:23:48;;;;;;;20.15;17.38;;;18.60;97.70;;;;;;5052700;28;20056;-74
2023/05/10 02:26:15;;;;;;;22.85;17.38;;;18.60;97.90;;;;;;5053082;28;20024;-74
2023/05/10 02:28:42;;;;;;;23.98;17.95;;;18.60;97.70;;;;;;5053099;28;20024;-76
2023/05/10 02:31:09;;;;;;;19.98;17.25;;;18.60;98.00;;;;;;5036029;28;20083;-74
2023/05/10 02:33:35;;;;;;;22.17;18.02;;;18.60;97.70;;;;;;5020618;28;20498;-73
2023/05/10 02:36:03;;;;;;;23.20;20.02;;;18.40;97.80;;;;;;5011355;28;20069;-75
2023/05/10 02:38:31;;;;;;;27.58;21.00;;;18.50;97.90;;;;;;5011267;28;20561;-76
2023/05/10 02:40:57;;;;;;;26.75;22.35;;;18.50;97.80;;;;;;5013113;28;20041;-72
2023/05/10 02:43:25;;;;;;;30.13;23.90;;;18.50;97.70;;;;;;5012982;28;20081;-75
2023/05/10 02:45:51;;;;;;;30.55;24.23;;;18.40;97.70;;;;;;5013307;28;20061;-71
2023/05/10 02:48:17;;;;;;;37.28;29.65;;;18.50;97.60;;;;;;5011539;28;20408;-70
2023/05/10 02:50:45;;;;;;;43.78;33.72;;;18.40;97.60;;;;;;5013773;28;20054;-72
2023/05/10 02:53:15;;;;;;;41.70;33.65;;;18.40;97.60;;;;;;5017259;28;20068;-74
2023/05/10 02:55:42;;;;;;;46.95;37.38;;;18.40;97.50;;;;;;5017001;28;20091;-74
2023/05/10 02:58:08;;;;;;;50.63;38.75;;;18.50;97.40;;;;;;5017197;28;20056;-72
2023/05/10 03:00:35;;;;;;;51.20;38.47;;;18.40;97.40;;;;;;5016947;28;20439;-71
2023/05/10 03:03:01;;;;;;;58.83;44.45;;;18.40;97.80;;;;;;5016542;28;20072;-74
2023/05/10 03:05:26;;;;;;;54.33;42.53;;;18.40;97.40;;;;;;5017196;28;20434;-73
2023/05/10 03:07:52;;;;;;;61.38;47.35;;;18.40;97.60;;;;;;5016841;28;20552;-71
2023/05/10 03:10:20;;;;;;;61.67;47.20;;;18.40;97.40;;;;;;5016827;28;20075;-72
2023/05/10 03:13:20;;;;;;;62.67;46.42;;;18.40;97.40;;;;;;5016815;28;20010;-74
2023/05/10 03:16:07;;;;;;;61.28;47.40;;;18.40;97.60;;;;;;5016244;28;20469;-72
2023/05/10 03:18:42;;;;;;;61.67;47.70;;;18.40;97.50;;;;;;5016543;28;20065;-73
2023/05/10 03:21:12;;;;;;;54.38;42.47;;;18.20;97.50;;;;;;5016691;28;20435;-73
2023/05/10 03:23:45;;;;;;;49.03;39.53;;;18.30;97.50;;;;;;5016645;28;20380;-73
2023/05/10 03:26:17;;;;;;;43.13;32.42;;;18.30;97.60;;;;;;5016711;28;20022;-71
2023/05/10 03:28:43;;;;;;;37.08;29.77;;;18.30;97.60;;;;;;5016525;28;20057;-73
2023/05/10 03:31:09;;;;;;;34.63;27.02;;;18.30;97.60;;;;;;5014759;28;20022;-72
2023/05/10 03:33:35;;;;;;;35.22;25.98;;;18.30;97.60;;;;;;5016273;28;20387;-71
2023/05/10 03:36:00;;;;;;;35.08;25.92;;;18.30;97.50;;;;;;5016494;28;20475;-75
2023/05/10 03:38:26;;;;;;;34.22;25.42;;;18.30;97.40;;;;;;5016262;28;20022;-74
2023/05/10 03:40:51;;;;;;;35.05;25.95;;;18.30;97.40;;;;;;5016183;28;20076;-73
2023/05/10 03:43:17;;;;;;;33.45;26.67;;;18.30;97.40;;;;;;5016115;28;20026;-75
2023/05/10 03:45:42;;;;;;;35.30;27.00;;;18.30;97.40;;;;;;5015822;28;20076;-74
2023/05/10 03:48:08;;;;;;;36.97;26.98;;;18.30;97.30;;;;;;5016179;28;20434;-74
2023/05/10 03:50:34;;;;;;;35.85;25.90;;;18.30;97.30;;;;;;5015912;28;20026;-73
2023/05/10 03:52:59;;;;;;;33.60;24.63;;;18.30;97.30;;;;;;5016496;28;20072;-74
2023/05/10 03:55:25;;;;;;;33.17;27.05;;;18.30;97.30;;;;;;5015798;28;20100;-74
2023/05/10 03:57:51;;;;;;;34.00;25.35;;;18.20;97.40;;;;;;5016082;28;20014;-74
2023/05/10 04:00:17;;;;;;;30.20;25.50;;;18.20;97.40;;;;;;5015737;28;20026;-73
2023/05/10 04:02:42;;;;;;;30.00;25.40;;;18.30;97.40;;;;;;5015222;28;20034;-71
2023/05/10 04:05:08;;;;;;;31.77;24.27;;;18.50;96.40;;;;;;5030994;28;20030;-72
2023/05/10 04:07:34;;;;;;;35.38;26.00;;;18.70;95.80;;;;;;5015725;28;20030;-72
2023/05/10 04:10:00;;;;;;;34.97;27.77;;;18.70;95.50;;;;;;5015780;28;20018;-71
2023/05/10 04:12:25;;;;;;;33.75;26.92;;;18.80;95.40;;;;;;5015697;28;20025;-71
2023/05/10 04:14:51;;;;;;;35.67;28.70;;;18.80;95.30;;;;;;5014160;28;20052;-71
2023/05/10 04:17:16;;;;;;;34.20;27.60;;;18.80;95.30;;;;;;5015378;28;20033;-72
2023/05/10 04:19:42;;;;;;;33.85;28.00;;;18.80;95.30;;;;;;5015557;28;20030;-73
2023/05/10 04:22:08;;;;;;;35.58;28.77;;;18.80;95.30;;;;;;5015416;28;20030;-72
2023/05/10 04:24:33;;;;;;;39.72;29.85;;;18.80;95.30;;;;;;5015742;28;20037;-73
2023/05/10 04:26:59;;;;;;;36.47;26.33;;;18.80;95.30;;;;;;5015375;28;20087;-71
2023/05/10 04:29:25;;;;;;;34.85;28.52;;;18.80;95.30;;;;;;5015071;28;20036;-71
2023/05/10 04:31:50;;;;;;;36.42;29.23;;;18.80;95.30;;;;;;5015308;28;20053;-73
2023/05/10 04:34:16;;;;;;;32.63;28.02;;;18.80;95.30;;;;;;5015021;28;20116;-71
2023/05/10 04:36:41;;;;;;;34.30;27.88;;;18.80;95.30;;;;;;5015072;28;20036;-72
2023/05/10 04:39:08;;;;;;;35.90;28.58;;;18.90;95.30;;;;;;5013965;28;20471;-72
2023/05/10 04:41:33;;;;;;;37.50;29.17;;;18.80;95.40;;;;;;5015022;28;20379;-72
2023/05/10 04:43:59;;;;;;;37.75;30.17;;;18.80;95.50;;;;;;5014902;28;20029;-73
2023/05/10 04:46:24;;;;;;;38.90;31.65;;;18.80;95.60;;;;;;5015024;28;20030;-72
2023/05/10 04:48:50;;;;;;;37.90;30.13;;;18.80;95.50;;;;;;5014998;28;20025;-72
2023/05/10 04:51:16;;;;;;;37.30;30.70;;;18.80;95.50;;;;;;5015161;28;20028;-72
2023/05/10 04:53:41;;;;;;;41.00;33.70;;;18.80;95.50;;;;;;5014904;28;20105;-72
2023/05/10 04:56:07;;;;;;;48.20;39.25;;;18.80;95.50;;;;;;5014870;28;20042;-73
2023/05/10 04:58:33;;;;;;;49.95;41.22;;;18.80;95.60;;;;;;5014406;28;20022;-73
2023/05/10 05:01:06;;;;;;;55.72;44.08;;;18.80;95.50;;;;;;5022055;28;20108;-71
2023/05/10 05:03:32;;;;;;;58.67;46.63;;;18.90;95.50;;;;;;5034252;28;20025;-72
2023/05/10 05:05:57;;;;;;;58.95;49.00;;;18.90;95.50;;;;;;5034294;28;20505;-73
2023/05/10 05:08:23;;;;;;;56.60;48.50;;;18.90;95.60;;;;;;5034290;28;20018;-72
2023/05/10 05:10:50;;;;;;;56.03;47.08;;;18.80;95.60;;;;;;5034508;28;20035;-73
2023/05/10 05:13:15;;;;;;;54.38;46.45;;;18.90;95.60;;;;;;5033929;28;20021;-72
2023/05/10 05:15:41;;;;;;;56.25;45.65;;;18.90;95.60;;;;;;5033296;28;20045;-71
2023/05/10 05:18:07;;;;;;;51.10;42.17;;;18.90;95.70;;;;;;5021587;28;20049;-71
2023/05/10 05:20:34;;;;;;;45.28;38.42;;;18.90;95.60;;;;;;5027832;28;20034;-72
2023/05/10 05:23:00;;;;;;;39.75;34.38;;;18.90;95.60;;;;;;5025544;28;20028;-73
2023/05/10 05:25:25;;;;;;;38.22;31.80;;;18.90;95.50;;;;;;5038364;28;20026;-72
2023/05/10 05:27:51;;;;;;;37.33;31.75;;;18.90;95.70;;;;;;5048754;28;20381;-72
2023/05/10 05:30:17;;;;;;;30.85;27.35;;;18.90;96.00;;;;;;5052493;28;20505;-74
2023/05/10 05:32:44;;;;;;;28.33;24.08;;;18.90;95.60;;;;;;5043572;28;20022;-72
2023/05/10 05:35:09;;;;;;;32.67;23.92;;;18.90;95.60;;;;;;5030036;28;20117;-71
2023/05/10 05:37:35;;;;;;;35.83;27.35;;;18.70;96.20;;;;;;5033458;28;20105;-71
2023/05/10 05:40:01;;;;;;;35.95;29.20;;;18.40;96.80;;;;;;5030551;28;20033;-71
2023/05/10 05:42:27;;;;;;;38.28;29.52;;;18.20;97.30;;;;;;5036956;28;20098;-71
2023/05/10 05:44:53;;;;;;;31.25;26.20;;;18.40;97.10;;;;;;5027558;28;20478;-70
2023/05/10 05:47:19;;;;;;;37.70;31.55;;;18.40;97.20;;;;;;5028738;28;20036;-71
2023/05/10 05:49:47;;;;;;;41.55;34.05;;;18.30;97.20;;;;;;5036473;28;20028;-71
2023/05/10 05:52:13;;;;;;;44.47;35.00;;;18.30;97.30;;;;;;5035621;28;20029;-71
2023/05/10 05:54:39;;;;;;;35.40;28.15;;;18.40;97.20;;;;;;5031957;28;20033;-69
2023/05/10 05:57:05;;;;;;;40.78;30.70;;;18.40;97.40;;;;;;5036470;28;20435;-71
2023/05/10 05:59:30;;;;;;;45.55;37.35;;;18.60;97.00;;;;;;5030354;28;20577;-71
2023/05/10 06:01:56;;;;;;;47.70;37.00;;;18.40;96.90;;;;;;5040008;28;20550;-73
2023/05/10 06:04:22;;;;;;;42.25;33.40;;;18.40;97.10;;;;;;5034517;28;20034;-72
2023/05/10 06:06:48;;;;;;;42.25;31.48;;;18.60;97.00;;;;;;5031830;28;20033;-72
2023/05/10 06:09:13;;;;;;;35.47;27.75;;;18.60;96.90;;;;;;5037964;28;20363;-70
2023/05/10 06:11:39;;;;;;;34.25;27.75;;;18.70;96.80;;;;;;5028390;28;20025;-70
2023/05/10 06:14:07;;;;;;;35.00;27.58;;;18.70;96.80;;;;;;5044117;28;20028;-70
2023/05/10 06:16:33;;;;;;;32.28;26.45;;;18.70;96.80;;;;;;5034470;28;20059;-71
2023/05/10 06:18:59;;;;;;;30.90;25.67;;;18.70;96.80;;;;;;5031666;28;20099;-71
2023/05/10 06:21:25;;;;;;;29.60;24.80;;;18.70;96.90;;;;;;5033439;28;21689;-71
2023/05/10 06:23:51;;;;;;;26.42;23.15;;;18.80;96.80;;;;;;5036399;28;20021;-71
2023/05/10 06:26:16;;;;;;;28.77;24.52;;;18.80;96.80;;;;;;5031546;28;20022;-71
2023/05/10 06:28:42;;;;;;;33.22;27.13;;;18.80;96.70;;;;;;5029791;28;20022;-71
2023/05/10 06:31:08;;;;;;;26.08;21.98;;;18.60;96.80;;;;;;5011745;28;20022;-71
2023/05/10 06:33:34;;;;;;;24.92;21.15;;;18.80;96.70;;;;;;5021750;28;20025;-71
2023/05/10 06:36:00;;;;;;;28.23;23.70;;;18.80;96.80;;;;;;5033823;28;20511;-71
2023/05/10 06:38:26;;;;;;;29.65;23.35;;;18.90;96.50;;;;;;5052238;28;20045;-71
2023/05/10 06:40:52;;;;;;;27.30;24.00;;;18.80;96.50;;;;;;5035353;28;20116;-71
2023/05/10 06:43:17;;;;;;;25.58;22.58;;;18.80;96.40;;;;;;5032767;28;20414;-71
2023/05/10 06:45:43;;;;;;;24.35;21.75;;;18.70;96.40;;;;;;5048984;28;20112;-71
2023/05/10 06:48:08;;;;;;;28.45;23.15;;;18.70;96.40;;;;;;5039286;28;20502;-70
2023/05/10 06:50:34;;;;;;;29.00;21.10;;;18.60;96.60;;;;;;5037985;28;20040;-71
2023/05/10 06:53:01;;;;;;;25.23;20.98;;;18.40;96.80;;;;;;5031814;28;20072;-71
2023/05/10 06:55:27;;;;;;;23.70;20.60;;;18.40;97.10;;;;;;5032489;28;20030;-71
2023/05/10 06:57:53;;;;;;;23.40;20.20;;;18.40;97.00;;;;;;5032351;28;20434;-70
2023/05/10 07:00:20;;;;;;;24.70;20.60;;;18.30;97.20;;;;;;5032549;28;20021;-71
2023/05/10 07:02:46;;;;;;;25.98;22.20;;;18.40;97.40;;;;;;5032898;28;20386;-71
2023/05/10 07:05:12;;;;;;;28.83;23.45;;;18.50;97.20;;;;;;5032647;28;20459;-70
2023/05/10 07:07:38;;;;;;;26.60;23.63;;;18.50;97.00;;;;;;5031583;28;20113;-71
2023/05/10 07:10:04;;;;;;;30.23;24.50;;;18.50;97.10;;;;;;5032007;28;20022;-71
2023/05/10 07:12:30;;;;;;;26.15;23.13;;;18.70;97.10;;;;;;5032455;28;20029;-71
2023/05/10 07:14:56;;;;;;;24.42;21.80;;;18.90;97.10;;;;;;5030927;28;20178;-70
2023/05/10 07:17:21;;;;;;;25.13;21.17;;;19.00;97.00;;;;;;5033737;28;20489;-71
2023/05/10 07:19:47;;;;;;;22.45;19.02;;;19.10;96.90;;;;;;5051917;28;20025;-71
2023/05/10 07:22:12;;;;;;;21.65;17.33;;;19.20;96.70;;;;;;5042561;28;20030;-70
2023/05/10 07:24:38;;;;;;;18.63;16.65;;;19.20;96.50;;;;;;5032362;28;20021;-72
2023/05/10 07:27:04;;;;;;;20.05;16.48;;;19.40;96.40;;;;;;5033511;28;20080;-72
2023/05/10 07:29:29;;;;;;;20.92;17.02;;;19.30;96.30;;;;;;5044988;28;20017;-72
2023/05/10 07:31:55;;;;;;;22.08;17.30;;;19.30;96.30;;;;;;5033194;28;20037;-72
2023/05/10 07:34:21;;;;;;;21.30;16.45;;;19.30;96.10;;;;;;5045743;28;20021;-72
2023/05/10 07:36:47;;;;;;;19.83;16.33;;;19.30;96.20;;;;;;5031829;28;20068;-72
2023/05/10 07:39:12;;;;;;;24.50;18.20;;;19.40;96.10;;;;;;5032831;28;20486;-70
2023/05/10 07:41:38;;;;;;;23.63;17.85;;;19.50;96.10;;;;;;5034147;28;20482;-72
2023/05/10 07:44:04;;;;;;;21.08;17.30;;;19.50;96.10;;;;;;5035889;28;20045;-72
2023/05/10 07:46:30;;;;;;;20.52;17.63;;;19.50;96.00;;;;;;5035577;28;20080;-72
2023/05/10 07:48:55;;;;;;;21.08;17.17;;;19.50;95.90;;;;;;5033000;28;20033;-72
2023/05/10 07:51:21;;;;;;;20.00;16.52;;;19.60;95.40;;;;;;5032959;28;20044;-72
2023/05/10 07:53:47;;;;;;;21.75;15.05;;;19.60;95.40;;;;;;5035838;28;20026;-72
2023/05/10 07:56:29;;;;;;;19.25;16.17;;;19.60;95.60;;;;;;5035097;28;20033;-72
2023/05/10 07:59:04;;;;;;;;;;;19.60;95.50;;;;;;5035767;28;20474;-72
2023/05/10 08:01:34;;;;;;;21.02;16.25;;;19.70;95.40;;;;;;5031966;28;20273;-72
2023/05/10 08:04:01;;;;;;;19.13;16.33;;;19.70;95.40;;;;;;5034721;28;20075;-72
2023/05/10 08:06:28;;;;;;;21.98;17.85;;;19.70;95.50;;;;;;5037486;28;20032;-72
2023/05/10 08:08:54;;;;;;;23.13;18.33;;;19.70;95.70;;;;;;5039793;28;20021;-72
2023/05/10 08:11:20;;;;;;;22.45;18.25;;;19.70;95.80;;;;;;5047302;28;20040;-72
2023/05/10 08:13:47;;;;;;;25.75;19.63;;;19.70;95.80;;;;;;5035373;28;20025;-72
2023/05/10 08:16:13;;;;;;;23.77;19.17;;;19.80;95.70;;;;;;5036759;28;20053;-73
2023/05/10 08:18:40;;;;;;;22.48;17.92;;;19.80;95.60;;;;;;5039052;28;20021;-70
2023/05/10 08:21:05;;;;;;;21.05;16.65;;;19.80;95.30;;;;;;5034046;28;20482;-70
2023/05/10 08:23:31;;;;;;;19.48;15.25;;;19.80;95.40;;;;;;5034461;28;20017;-72
2023/05/10 08:25:57;;;;;;;21.30;14.82;;;19.90;95.30;;;;;;5045443;28;20037;-71
2023/05/10 08:28:22;;;;;;;23.80;19.85;;;19.90;95.20;;;;;;5053768;28;20025;-71
2023/05/10 08:30:49;;;;;;;32.50;25.30;;;19.90;95.20;;;;;;5052733;28;20524;-70
2023/05/10 08:33:15;;;;;;;33.00;25.95;;;20.00;95.00;;;;;;5052552;28;20029;-71
2023/05/10 08:35:41;;;;;;;24.35;19.13;;;20.00;95.00;;;;;;5034327;28;20087;-73
2023/05/10 08:38:07;;;;;;;19.90;14.88;;;20.00;95.00;;;;;;5033599;28;20022;-71
2023/05/10 08:40:32;;;;;;;16.00;13.48;;;20.00;94.90;;;;;;5034746;28;20445;-71
2023/05/10 08:43:09;;;;;;;13.40;9.30;;;20.10;95.10;;;;;;5034772;28;20025;-71
2023/05/10 08:45:41;;;;;;;13.10;9.93;;;20.10;94.90;;;;;;5034958;28;20526;-71
2023/05/10 08:48:08;;;;;;;13.15;8.88;;;20.10;94.40;;;;;;5035264;28;20034;-71
2023/05/10 08:50:36;;;;;;;10.90;8.50;;;20.10;94.10;;;;;;5035312;28;20443;-71
2023/05/10 08:53:04;;;;;;;12.32;8.52;;;20.20;94.20;;;;;;5034403;28;20079;-71
2023/05/10 08:55:32;;;;;;;10.90;7.55;;;20.20;94.10;;;;;;5022903;28;20038;-71
2023/05/10 08:57:58;;;;;;;8.15;6.85;;;20.10;93.90;;;;;;5034389;28;20064;-71
2023/05/10 09:00:24;;;;;;;8.93;7.53;;;20.20;94.00;;;;;;5033975;28;20429;-71
2023/05/10 09:02:50;;;;;;;9.23;7.97;;;20.20;94.10;;;;;;5034452;28;20025;-71
2023/05/10 09:05:17;;;;;;;9.90;7.30;;;20.20;94.00;;;;;;5028089;28;20493;-70
2023/05/10 09:07:43;;;;;;;9.82;8.02;;;20.20;93.70;;;;;;5014411;28;20064;-71
2023/05/10 09:10:10;;;;;;;12.38;8.18;;;20.20;93.80;;;;;;5017380;28;20061;-71
2023/05/10 09:12:36;;;;;;;11.65;9.65;;;20.20;94.00;;;;;;5034061;28;20478;-70
2023/05/10 09:15:03;;;;;;;14.95;11.88;;;20.30;94.50;;;;;;5034222;28;20076;-70
2023/05/10 09:17:30;;;;;;;16.75;11.63;;;20.30;94.70;;;;;;5035049;28;20026;-71
2023/05/10 09:20:03;;;;;;;12.93;10.70;;;20.30;94.70;;;;;;5031928;28;20063;-71
2023/05/10 09:22:30;;;;;;;13.68;10.73;;;20.30;94.80;;;;;;5034149;28;20030;-71
2023/05/10 09:25:08;;;;;;;14.73;10.88;;;20.30;94.70;;;;;;5029675;28;20064;-71
2023/05/10 09:27:34;;;;;;;12.77;10.75;;;20.40;94.80;;;;;;5024913;28;20025;-71
2023/05/10 09:30:00;;;;;;;12.00;10.82;;;20.40;94.70;;;;;;5032447;28;20040;-71
2023/05/10 09:32:56;;;;;;;12.52;9.85;;;20.40;95.00;;;;;;5033898;28;20030;-71
2023/05/10 09:35:26;;;;;;;14.60;11.75;;;20.40;94.80;;;;;;5032305;28;20052;-71
2023/05/10 09:37:54;;;;;;;21.08;12.73;;;20.40;94.70;;;;;;5032364;28;20132;-71
2023/05/10 09:40:22;;;;;;;14.75;11.93;;;20.40;94.60;;;;;;5033880;28;20024;-71
2023/05/10 09:43:14;;;;;;;13.75;11.57;;;20.40;95.00;;;;;;5033654;28;20025;-71
2023/05/10 09:45:41;;;;;;;12.35;10.27;;;20.40;94.80;;;;;;5031496;28;20040;-71
2023/05/10 09:48:06;;;;;;;15.23;9.73;;;20.40;94.70;;;;;;5033044;28;20049;-71
2023/05/10 09:50:33;;;;;;;13.18;10.05;;;20.50;94.70;;;;;;5033472;28;20064;-71
2023/05/10 09:53:02;;;;;;;10.68;9.48;;;20.50;94.70;;;;;;5035013;28;20432;-71
2023/05/10 09:55:41;;;;;;;9.95;8.63;;;20.50;94.70;;;;;;5051188;28;20040;-72
2023/05/10 09:58:10;;;;;;;15.82;9.65;;;20.60;94.80;;;;;;5033436;28;20043;-71
2023/05/10 10:00:40;;;;;;;10.00;8.68;;;20.60;94.80;;;;;;5032913;28;20029;-72
2023/05/10 10:03:11;;;;;;;9.82;8.48;;;20.70;94.60;;;;;;5028207;28;20506;-72
2023/05/10 10:05:40;;;;;;;10.80;8.52;;;20.70;94.50;;;;;;5033225;28;20371;-72
2023/05/10 10:08:06;;;;;;;12.82;8.55;;;20.70;94.40;;;;;;5029117;28;20058;-72
2023/05/10 10:10:33;;;;;;;13.52;9.25;;;20.70;94.40;;;;;;5046898;28;20064;-71
2023/05/10 10:12:59;;;;;;;10.05;7.65;;;20.80;94.30;;;;;;5053129;28;20096;-71
2023/05/10 10:15:25;;;;;;;10.32;7.88;;;20.80;94.20;;;;;;5015379;28;20034;-71
2023/05/10 10:17:52;;;;;;;9.55;7.55;;;20.80;94.10;;;;;;5021551;28;20022;-71
2023/05/10 10:20:19;;;;;;;10.65;7.15;;;20.80;94.10;;;;;;5028326;28;20360;-71
2023/05/10 10:22:45;;;;;;;9.50;6.60;;;20.80;94.20;;;;;;5018446;28;20054;-71
2023/05/10 10:25:14;;;;;;;8.55;6.03;;;20.80;94.10;;;;;;5020370;28;20025;-71
2023/05/10 10:27:52;;;;;;;8.13;6.38;;;20.80;94.10;;;;;;5022972;28;20028;-72
2023/05/10 10:30:42;;;;;;;13.65;6.25;;;20.80;94.10;;;;;;5025979;28;20036;-70
2023/05/10 10:33:22;;;;;;;13.93;5.70;;;20.80;94.10;;;;;;5033139;28;20033;-70
2023/05/10 10:35:49;;;;;;;12.02;5.60;;;20.80;94.10;;;;;;5029238;28;20049;-69
2023/05/10 10:38:15;;;;;;;11.25;5.85;;;20.90;94.10;;;;;;5028296;28;20018;-71
2023/05/10 10:40:40;;;;;;;7.75;4.68;;;20.90;94.20;;;;;;5030178;28;20028;-70
2023/05/10 10:43:26;;;;;;;42.80;6.28;;;20.90;94.40;;;;;;5030295;28;20355;-71
2023/05/10 10:46:17;;;;;;;14.55;5.13;;;21.10;94.60;;;;;;5026814;28;20029;-70
2023/05/10 10:49:08;;;;;;;16.20;6.35;;;21.00;95.20;;;;;;5026098;28;20052;-71
2023/05/10 10:51:38;;;;;;;14.55;5.28;;;21.10;95.50;;;;;;5029775;28;20040;-71
2023/05/10 10:54:10;;;;;;;15.30;5.85;;;21.20;95.10;;;;;;5034702;28;20032;-70
2023/05/10 10:56:36;;;;;;;10.13;5.75;;;21.40;95.20;;;;;;5025510;28;20073;-69
2023/05/10 10:59:02;;;;;;;13.90;5.43;;;21.30;95.00;;;;;;5033969;28;20060;-70
2023/05/10 11:01:35;;;;;;;12.85;4.93;;;21.40;95.00;;;;;;5027328;28;20037;-70
2023/05/10 11:04:04;;;;;;;10.02;4.57;;;21.40;94.90;;;;;;5027003;28;20017;-68
2023/05/10 11:06:34;;;;;;;12.00;4.70;;;21.60;94.70;;;;;;5022788;28;20067;-67
2023/05/10 11:09:06;;;;;;;11.90;4.63;;;21.50;94.70;;;;;;5017966;28;20034;-68
2023/05/10 11:11:33;;;;;;;13.98;4.38;;;21.60;94.60;;;;;;5029343;28;20483;-70
2023/05/10 11:14:06;;;;;;;11.40;4.65;;;21.80;94.30;;;;;;5028662;28;20033;-68
2023/05/10 11:16:43;;;;;;;12.68;5.07;;;21.80;94.20;;;;;;5028388;28;20032;-70
2023/05/10 11:19:11;;;;;;;10.82;4.38;;;21.80;94.00;;;;;;5033839;28;20029;-70
2023/05/10 11:22:11;;;;;;;11.30;4.70;;;21.80;94.40;;;;;;5033614;28;20033;-71
2023/05/10 11:24:37;;;;;;;14.60;6.18;;;21.60;94.40;;;;;;5033565;28;20025;-66
2023/05/10 11:28:45;;;;;;;20.02;6.72;;;21.50;99.90;;;;;;5068848;28;20361;-70
2023/05/10 11:31:14;;;;;;;21.67;7.25;;;20.60;96.60;;;;;;5066892;28;20082;-66
2023/05/10 11:33:51;;;;;;;26.75;6.70;;;20.10;98.20;;;;;;5063719;28;20017;-68
2023/05/10 11:36:23;;;;;;;22.80;7.25;;;19.90;99.50;;;;;;5066758;28;20025;-70
2023/05/10 11:38:50;;;;;;;11.55;5.95;;;19.70;99.70;;;;;;5071333;28;20563;-68
2023/05/10 11:41:18;;;;;;;14.27;5.78;;;19.60;99.60;;;;;;5068985;28;20032;-68
2023/05/10 11:43:47;;;;;;;16.08;6.53;;;19.60;99.60;;;;;;5066487;28;20073;-71
2023/05/10 11:46:13;;;;;;;11.65;5.78;;;19.60;99.60;;;;;;5068559;28;20017;-71
2023/05/10 11:48:40;;;;;;;17.80;5.55;;;19.60;99.80;;;;;;5066663;28;20057;-73
2023/05/10 11:51:15;;;;;;;11.80;5.60;;;19.60;99.90;;;;;;5057171;28;20075;-72
2023/05/10 11:53:41;;;;;;;16.77;5.50;;;19.60;99.80;;;;;;5067355;28;20020;-71
2023/05/10 11:56:10;;;;;;;13.40;5.53;;;19.60;99.80;;;;;;5064346;28;20035;-71
2023/05/10 11:58:37;;;;;;;10.68;5.05;;;19.60;99.90;;;;;;5069693;28;20123;-71
2023/05/10 12:01:05;;;;;;;13.00;4.60;;;19.60;99.90;;;;;;5053915;28;20390;-72
2023/05/10 12:03:31;;;;;;;13.75;5.90;;;19.60;99.90;;;;;;5049101;28;20030;-69
2023/05/10 12:05:57;;;;;;;11.07;5.18;;;19.60;99.90;;;;;;5058723;28;20136;-73
2023/05/10 12:08:25;;;;;;;9.75;4.88;;;19.60;99.90;;;;;;5049709;28;20498;-72
2023/05/10 12:10:52;;;;;;;9.82;4.78;;;19.60;99.90;;;;;;5066700;28;20021;-72
2023/05/10 12:13:18;;;;;;;11.70;4.70;;;19.60;99.90;;;;;;5067400;28;20033;-73
2023/05/10 12:15:44;;;;;;;11.75;5.63;;;19.60;99.90;;;;;;5067279;28;20029;-72
2023/05/10 12:18:11;;;;;;;12.43;5.15;;;19.70;99.90;;;;;;5063780;28;20036;-71
2023/05/10 12:20:37;;;;;;;12.32;5.32;;;19.70;99.90;;;;;;5058164;28;20024;-70
2023/05/10 12:23:03;;;;;;;8.23;4.38;;;19.70;99.90;;;;;;5051355;28;20036;-72
2023/05/10 12:25:36;;;;;;;7.93;4.22;;;19.70;99.90;;;;;;5048614;28;20079;-73
2023/05/10 12:28:07;;;;;;;9.95;3.88;;;19.70;99.90;;;;;;5055738;28;20086;-70
2023/05/10 12:30:34;;;;;;;9.20;5.20;;;19.70;99.90;;;;;;5060149;28;20511;-69
2023/05/10 12:33:10;;;;;;;9.43;4.43;;;19.70;99.90;;;;;;5055990;28;20053;-69
2023/05/10 12:35:51;;;;;;;8.52;3.75;;;19.80;99.90;;;;;;5056330;28;20595;-71
2023/05/10 12:38:43;;;;;;;8.82;4.35;;;19.80;99.90;;;;;;5043567;28;20116;-71